createdAt,value
2022-12-04T00:04:22.856Z,2.60
2022-12-04T00:06:52.733Z,2.60
2022-12-04T00:09:22.497Z,2.60
2022-12-04T00:11:49.080Z,2.60
2022-12-04T00:14:32.580Z,2.60
2022-12-04T00:16:59.169Z,2.60
2022-12-04T00:19:25.735Z,2.60
2022-12-04T00:21:52.299Z,2.60
2022-12-04T00:24:18.899Z,2.60
2022-12-04T00:26:45.463Z,2.60
2022-12-04T00:32:01.139Z,2.60
2022-12-04T00:34:28.252Z,2.50
2022-12-04T00:36:54.869Z,2.50
2022-12-04T00:39:21.444Z,2.50
2022-12-04T00:41:48.011Z,2.50
2022-12-04T00:49:39.633Z,2.50
2022-12-04T00:52:06.203Z,2.50
2022-12-04T00:54:32.905Z,2.50
2022-12-04T00:56:59.436Z,2.50
2022-12-04T00:59:26.012Z,2.50
2022-12-04T01:01:52.590Z,2.50
2022-12-04T01:04:19.245Z,2.50
2022-12-04T01:06:46.774Z,2.40
2022-12-04T01:09:13.342Z,2.40
2022-12-04T01:11:39.940Z,2.40
2022-12-04T01:22:09.994Z,2.30
2022-12-04T01:24:36.619Z,2.30
2022-12-04T01:27:03.252Z,2.30
2022-12-04T01:29:29.833Z,2.30
2022-12-04T01:31:56.503Z,2.20
2022-12-04T01:34:25.150Z,2.20
2022-12-04T01:36:52.259Z,2.20
2022-12-04T01:39:19.148Z,2.20
2022-12-04T01:41:45.861Z,2.20
2022-12-04T01:44:15.505Z,2.20
2022-12-04T01:46:44.560Z,2.20
2022-12-04T01:49:18.312Z,2.20
2022-12-04T01:52:20.956Z,2.20
2022-12-04T01:54:55.458Z,2.20
2022-12-04T01:57:23.832Z,2.20
2022-12-04T01:59:55.284Z,2.20
2022-12-04T02:02:37.401Z,2.20
2022-12-04T02:07:39.096Z,2.30
2022-12-04T02:10:08.704Z,2.30
2022-12-04T02:12:44.243Z,2.20
2022-12-04T02:15:22.313Z,2.30
2022-12-04T02:18:25.895Z,2.30
2022-12-04T02:21:19.182Z,2.30
2022-12-04T02:24:23.577Z,2.30
2022-12-04T02:26:53.872Z,2.20
2022-12-04T02:29:34.306Z,2.20
2022-12-04T02:34:42.052Z,2.20
2022-12-04T02:37:13.013Z,2.20
2022-12-04T02:40:07.720Z,2.20
2022-12-04T02:42:42.263Z,2.20
2022-12-04T02:45:39.706Z,2.10
2022-12-04T02:48:07.858Z,2.10
2022-12-04T02:50:37.811Z,2.10
2022-12-04T02:53:18.078Z,2.10
2022-12-04T02:58:36.478Z,2.00
2022-12-04T03:01:19.237Z,1.90
2022-12-04T03:04:15.601Z,1.90
2022-12-04T03:06:44.449Z,1.90
2022-12-04T03:09:34.938Z,2.00
2022-12-04T03:12:11.932Z,1.90
2022-12-04T03:14:42.807Z,1.90
2022-12-04T03:17:16.621Z,1.90
2022-12-04T03:22:24.044Z,1.90
2022-12-04T03:24:52.746Z,1.90
2022-12-04T03:27:40.781Z,1.80
2022-12-04T03:30:12.315Z,1.80
2022-12-04T03:32:51.012Z,1.70
2022-12-04T03:35:26.144Z,1.70
2022-12-04T03:38:10.929Z,1.70
2022-12-04T03:43:24.643Z,1.70
2022-12-04T03:46:14.449Z,1.80
2022-12-04T03:48:50.864Z,1.80
2022-12-04T03:51:23.893Z,1.70
2022-12-04T03:53:55.900Z,1.70
2022-12-04T03:56:29.888Z,1.70
2022-12-04T03:59:00.503Z,1.70
2022-12-04T04:07:20.208Z,1.60
2022-12-04T04:09:48.039Z,1.70
2022-12-04T04:12:27.361Z,1.60
2022-12-04T04:15:16.024Z,1.60
2022-12-04T04:18:02.786Z,1.60
2022-12-04T04:23:19.592Z,1.60
2022-12-04T04:25:47.455Z,1.60
2022-12-04T04:34:08.221Z,1.50
2022-12-04T04:36:36.818Z,1.50
2022-12-04T04:39:41.736Z,1.50
2022-12-04T04:42:28.379Z,1.60
2022-12-04T04:45:08.625Z,1.70
2022-12-04T04:47:54.499Z,1.70
2022-12-04T04:50:21.977Z,1.70
2022-12-04T04:52:57.823Z,1.70
2022-12-04T05:06:17.369Z,1.70
2022-12-04T05:08:44.294Z,1.70
2022-12-04T05:11:13.755Z,1.70
2022-12-04T05:13:40.504Z,1.70
2022-12-04T05:21:57.464Z,1.70
2022-12-04T05:24:24.042Z,1.60
2022-12-04T05:26:50.688Z,1.60
2022-12-04T05:29:17.269Z,1.60
2022-12-04T05:31:43.864Z,1.50
2022-12-04T05:34:23.248Z,1.40
2022-12-04T05:36:49.798Z,1.40
2022-12-04T05:39:16.345Z,1.40
2022-12-04T05:41:42.911Z,1.40
2022-12-04T05:44:09.506Z,1.40
2022-12-04T05:46:36.195Z,1.50
2022-12-04T05:51:46.546Z,1.50
2022-12-04T05:54:13.211Z,1.50
2022-12-04T05:56:39.800Z,1.50
2022-12-04T05:59:06.352Z,1.40
2022-12-04T06:01:32.970Z,1.50
2022-12-04T06:06:48.505Z,1.50
2022-12-04T06:09:15.103Z,1.50
2022-12-04T06:11:42.682Z,1.40
2022-12-04T06:14:13.096Z,1.40
2022-12-04T06:16:42.186Z,1.40
2022-12-04T06:19:16.202Z,1.50
2022-12-04T06:21:44.132Z,1.50
2022-12-04T06:24:14.401Z,1.50
2022-12-04T06:26:57.564Z,1.50
2022-12-04T06:29:27.627Z,1.50
2022-12-04T06:31:54.353Z,1.50
2022-12-04T06:34:20.963Z,1.50
2022-12-04T06:36:47.605Z,1.50
2022-12-04T06:39:18.730Z,1.50
2022-12-04T06:41:47.399Z,1.40
2022-12-04T06:44:16.876Z,1.50
2022-12-04T06:46:47.098Z,1.50
2022-12-04T06:49:14.150Z,1.50
2022-12-04T06:51:40.972Z,1.40
2022-12-04T06:54:07.973Z,1.40
2022-12-04T06:56:34.873Z,1.30
2022-12-04T06:59:02.955Z,1.20
2022-12-04T07:01:31.825Z,1.20
2022-12-04T07:04:02.125Z,1.20
2022-12-04T07:06:30.996Z,1.20
2022-12-04T07:09:06.454Z,1.10
2022-12-04T07:11:33.682Z,1.20
2022-12-04T07:14:00.216Z,1.20
2022-12-04T07:16:27.980Z,1.10
2022-12-04T07:19:02.101Z,1.20
2022-12-04T07:21:31.312Z,1.20
2022-12-04T07:24:00.339Z,1.20
2022-12-04T07:26:28.377Z,1.30
2022-12-04T07:28:55.504Z,1.30
2022-12-04T07:31:23.780Z,1.30
2022-12-04T07:42:03.847Z,1.40
2022-12-04T07:44:33.221Z,1.40
2022-12-04T07:46:59.938Z,1.40
2022-12-04T07:49:26.850Z,1.40
2022-12-04T07:51:57.099Z,1.30
2022-12-04T07:54:23.698Z,1.30
2022-12-04T07:56:50.274Z,1.30
2022-12-04T07:59:16.812Z,1.20
2022-12-04T08:01:43.437Z,1.20
2022-12-04T08:04:10.690Z,1.20
2022-12-04T08:09:22.275Z,1.30
2022-12-04T08:11:48.865Z,1.30
2022-12-04T08:14:15.577Z,1.30
2022-12-04T08:16:46.017Z,1.30
2022-12-04T08:19:14.908Z,1.40
2022-12-04T08:24:13.922Z,1.40
2022-12-04T08:26:40.578Z,1.40
2022-12-04T08:29:07.593Z,1.40
2022-12-04T08:31:35.621Z,1.40
2022-12-04T08:34:05.251Z,1.50
2022-12-04T08:37:06.679Z,1.50
2022-12-04T08:40:06.780Z,1.50
2022-12-04T08:43:05.949Z,1.50
2022-12-04T08:48:16.730Z,1.50
2022-12-04T08:50:46.262Z,1.50
2022-12-04T08:53:12.871Z,1.50
2022-12-04T08:55:39.441Z,1.50
2022-12-04T08:58:06.007Z,1.50
2022-12-04T09:03:05.354Z,1.50
2022-12-04T09:05:31.976Z,1.50
2022-12-04T09:07:58.588Z,1.50
2022-12-04T09:10:25.170Z,1.50
2022-12-04T09:12:51.824Z,1.40
2022-12-04T09:20:49.057Z,1.30
2022-12-04T09:23:15.631Z,1.30
2022-12-04T09:25:42.254Z,1.40
2022-12-04T09:28:08.792Z,1.40
2022-12-04T09:30:35.370Z,1.40
2022-12-04T09:33:01.951Z,1.40
2022-12-04T09:35:29.986Z,1.40
2022-12-04T09:37:57.244Z,1.50
2022-12-04T09:40:33.719Z,1.50
2022-12-04T09:43:18.650Z,1.60
2022-12-04T09:45:51.512Z,1.60
2022-12-04T09:51:00.732Z,1.70
2022-12-04T09:53:30.071Z,1.70
2022-12-04T09:56:02.238Z,1.80
2022-12-04T09:58:41.159Z,1.70
2022-12-04T10:01:31.221Z,1.80
2022-12-04T10:04:04.282Z,1.80
2022-12-04T10:06:40.717Z,1.80
2022-12-04T10:21:01.993Z,2.40
2022-12-04T10:23:55.513Z,2.60
2022-12-04T10:26:25.767Z,2.70
2022-12-04T10:29:02.772Z,2.70
2022-12-04T10:31:30.711Z,2.70
2022-12-04T10:34:03.753Z,2.70
2022-12-04T10:36:35.216Z,2.60
2022-12-04T10:44:47.476Z,2.70
2022-12-04T10:47:14.387Z,2.80
2022-12-04T10:49:41.773Z,2.80
2022-12-04T10:52:12.958Z,2.70
2022-12-04T10:54:50.099Z,2.70
2022-12-04T10:57:16.927Z,2.70
2022-12-04T10:59:57.076Z,2.80
2022-12-04T11:02:27.145Z,2.80
2022-12-04T11:05:01.728Z,2.90
2022-12-04T11:07:31.093Z,3.00
2022-12-04T11:10:21.034Z,3.00
2022-12-04T11:12:55.110Z,2.90
2022-12-04T11:15:22.169Z,2.80
2022-12-04T11:17:48.835Z,2.70
2022-12-04T11:20:18.543Z,2.70
2022-12-04T11:22:54.213Z,2.70
2022-12-04T11:25:22.193Z,2.70
2022-12-04T11:27:51.071Z,2.70
2022-12-04T11:30:37.728Z,2.80
2022-12-04T11:33:14.400Z,2.70
2022-12-04T11:35:41.042Z,2.70
2022-12-04T11:38:13.666Z,2.70
2022-12-04T11:40:53.069Z,2.70
2022-12-04T11:43:20.374Z,2.70
2022-12-04T11:46:01.597Z,2.80
2022-12-04T11:48:31.440Z,2.80
2022-12-04T11:53:59.887Z,2.90
2022-12-04T11:56:35.713Z,2.90
2022-12-04T11:59:11.280Z,2.90
2022-12-04T12:02:26.185Z,2.90
2022-12-04T12:05:16.023Z,2.90
2022-12-04T12:08:01.883Z,2.90
2022-12-04T12:10:44.439Z,2.90
2022-12-04T12:13:14.465Z,3.00
2022-12-04T12:15:52.614Z,3.00
2022-12-04T12:18:39.660Z,3.00
2022-12-04T12:21:12.857Z,3.00
2022-12-04T12:29:10.690Z,3.00
2022-12-04T12:32:03.174Z,3.00
2022-12-04T12:34:35.589Z,3.00
2022-12-04T12:37:24.367Z,3.00
2022-12-04T12:39:58.843Z,3.00
2022-12-04T12:42:30.879Z,3.00
2022-12-04T12:45:01.714Z,3.00
2022-12-04T12:47:29.983Z,2.90
2022-12-04T12:50:21.870Z,2.90
2022-12-04T12:53:05.471Z,2.80
2022-12-04T12:55:56.644Z,2.90
2022-12-04T12:58:56.048Z,2.90
2022-12-04T13:01:45.632Z,2.90
2022-12-04T13:04:33.577Z,2.90
2022-12-04T13:07:18.592Z,2.80
2022-12-04T13:09:50.636Z,2.80
2022-12-04T13:12:18.527Z,2.80
2022-12-04T13:14:49.025Z,2.80
2022-12-04T13:17:18.079Z,2.90
2022-12-04T13:19:53.862Z,2.90
2022-12-04T13:22:41.863Z,2.90
2022-12-04T13:25:21.051Z,2.90
2022-12-04T13:27:57.880Z,2.80
2022-12-04T13:30:53.124Z,2.80
2022-12-04T13:33:32.367Z,2.80
2022-12-04T13:36:23.882Z,2.80
2022-12-04T13:39:04.878Z,2.80
2022-12-04T13:47:11.456Z,2.70
2022-12-04T13:49:42.090Z,2.80
2022-12-04T13:52:40.801Z,2.70
2022-12-04T13:55:37.184Z,2.70
2022-12-04T13:58:26.110Z,2.80
2022-12-04T14:01:05.473Z,2.80
2022-12-04T14:03:35.850Z,2.80
2022-12-04T14:06:05.416Z,2.90
2022-12-04T14:08:35.720Z,2.90
2022-12-04T14:14:07.946Z,2.80
2022-12-04T14:19:11.749Z,2.80
2022-12-04T14:21:43.643Z,2.90
2022-12-04T14:24:25.247Z,2.90
2022-12-04T14:29:54.739Z,2.80
2022-12-04T14:34:57.098Z,2.90
2022-12-04T14:37:28.646Z,2.80
2022-12-04T14:39:56.133Z,2.70
2022-12-04T14:42:26.518Z,2.80
2022-12-04T14:45:02.098Z,2.80
2022-12-04T14:48:07.130Z,2.80
2022-12-04T14:50:42.494Z,2.80
2022-12-04T14:58:53.124Z,2.70
2022-12-04T15:01:29.396Z,2.70
2022-12-04T15:03:59.177Z,2.70
2022-12-04T15:06:30.839Z,2.70
2022-12-04T15:09:18.526Z,2.80
2022-12-04T15:12:12.168Z,2.80
2022-12-04T15:14:49.975Z,2.80
2022-12-04T15:19:46.972Z,2.80
2022-12-04T15:22:25.371Z,2.80
2022-12-04T15:24:52.478Z,2.80
2022-12-04T15:27:28.924Z,2.80
2022-12-04T15:29:59.334Z,2.80
2022-12-04T15:32:28.726Z,2.80
2022-12-04T15:43:26.048Z,2.80
2022-12-04T15:45:53.582Z,2.90
2022-12-04T15:48:24.979Z,2.80
2022-12-04T15:51:03.336Z,2.80
2022-12-04T15:53:33.263Z,2.90
2022-12-04T15:58:41.338Z,2.80
2022-12-04T16:01:10.679Z,2.80
2022-12-04T16:03:39.935Z,2.90
2022-12-04T16:06:19.435Z,2.80
2022-12-04T16:08:51.677Z,2.80
2022-12-04T16:11:18.302Z,2.90
2022-12-04T16:13:44.908Z,2.90
2022-12-04T16:16:21.433Z,2.90
2022-12-04T16:18:48.236Z,2.80
2022-12-04T16:21:17.413Z,2.90
2022-12-04T16:23:44.898Z,2.80
2022-12-04T16:26:17.045Z,2.80
2022-12-04T16:31:31.659Z,2.80
2022-12-04T16:33:58.294Z,2.80
2022-12-04T16:36:24.887Z,2.80
2022-12-04T16:38:51.605Z,2.80
2022-12-04T16:41:19.498Z,2.70
2022-12-04T16:49:23.374Z,2.70
2022-12-04T16:51:49.959Z,2.80
2022-12-04T16:54:16.655Z,2.90
2022-12-04T16:56:43.275Z,2.90
2022-12-04T16:59:12.208Z,2.90
2022-12-04T17:04:26.116Z,2.90
2022-12-04T17:06:52.857Z,3.00
2022-12-04T17:09:19.511Z,2.90
2022-12-04T17:11:46.210Z,3.00
2022-12-04T17:14:12.915Z,2.90
2022-12-04T17:21:58.225Z,2.70
2022-12-04T17:24:24.776Z,2.70
2022-12-04T17:26:51.401Z,2.60
2022-12-04T17:29:17.964Z,2.60
2022-12-04T17:34:16.411Z,2.60
2022-12-04T17:36:42.942Z,2.60
2022-12-04T17:39:11.526Z,2.70
2022-12-04T17:41:38.064Z,2.70
2022-12-04T17:44:04.807Z,2.80
2022-12-04T17:49:14.408Z,2.80
2022-12-04T17:51:41.086Z,2.80
2022-12-04T17:54:07.973Z,2.90
2022-12-04T17:56:34.678Z,2.80
2022-12-04T17:59:01.301Z,2.80
2022-12-04T18:04:13.721Z,2.90
2022-12-04T18:06:42.284Z,2.90
2022-12-04T18:09:10.783Z,2.90
2022-12-04T18:11:38.976Z,2.90
2022-12-04T18:14:12.623Z,2.90
2022-12-04T18:19:10.642Z,2.80
2022-12-04T18:21:37.297Z,2.70
2022-12-04T18:24:04.907Z,2.70
2022-12-04T18:26:36.963Z,2.80
2022-12-04T18:29:04.716Z,2.90
2022-12-04T18:39:47.500Z,2.80
2022-12-04T18:42:14.075Z,2.90
2022-12-04T18:44:40.797Z,2.90
2022-12-04T18:47:07.458Z,2.80
2022-12-04T18:52:08.522Z,2.80
2022-12-04T18:54:35.103Z,2.80
2022-12-04T18:57:01.915Z,2.80
2022-12-04T18:59:29.083Z,2.90
2022-12-04T19:01:55.912Z,2.90
2022-12-04T19:04:30.452Z,2.90
2022-12-04T19:06:57.072Z,2.80
2022-12-04T19:10:09.888Z,2.90
2022-12-04T19:12:13.649Z,2.90
2022-12-04T19:14:40.410Z,2.90
2022-12-04T19:17:07.339Z,2.80
2022-12-04T19:19:33.952Z,2.80
2022-12-04T19:22:01.129Z,2.80
2022-12-04T19:24:27.781Z,2.80
2022-12-04T19:26:54.644Z,2.80
2022-12-04T19:29:21.223Z,2.80
2022-12-04T19:31:47.882Z,2.80
2022-12-04T19:39:35.433Z,2.90
2022-12-04T19:42:02.055Z,2.90
2022-12-04T19:47:15.190Z,2.90
2022-12-04T19:49:41.879Z,2.80
2022-12-04T19:54:49.183Z,2.80
2022-12-04T19:57:15.960Z,2.80
2022-12-04T19:59:46.336Z,2.70
2022-12-04T20:02:14.395Z,2.80
2022-12-04T20:04:41.136Z,2.70
2022-12-04T20:09:46.018Z,2.70
2022-12-04T20:12:15.422Z,2.70
2022-12-04T20:14:42.025Z,2.60
2022-12-04T20:17:08.768Z,2.60
2022-12-04T20:19:35.433Z,2.70
2022-12-04T20:22:02.037Z,2.70
2022-12-04T20:24:28.614Z,2.70
2022-12-04T20:26:55.412Z,2.70
2022-12-04T20:29:21.973Z,2.70
2022-12-04T20:31:48.606Z,2.70
2022-12-04T20:34:18.169Z,2.70
2022-12-04T20:36:46.256Z,2.60
2022-12-04T20:39:13.976Z,2.60
2022-12-04T20:41:40.995Z,2.60
2022-12-04T20:44:09.401Z,2.60
2022-12-04T20:46:38.173Z,2.60
2022-12-04T20:49:08.710Z,2.60
2022-12-04T20:51:41.421Z,2.60
2022-12-04T20:54:08.958Z,2.60
2022-12-04T20:56:37.078Z,2.60
2022-12-04T20:59:06.402Z,2.60
2022-12-04T21:01:33.405Z,2.50
2022-12-04T21:04:03.348Z,2.60
2022-12-04T21:06:34.818Z,2.60
2022-12-04T21:09:13.671Z,2.60
2022-12-04T21:11:45.443Z,2.60
2022-12-04T21:14:45.531Z,2.50
2022-12-04T21:17:19.139Z,2.60
2022-12-04T21:19:47.044Z,2.60
2022-12-04T21:22:14.486Z,2.60
2022-12-04T21:27:29.629Z,2.50
2022-12-04T21:29:56.429Z,2.50
2022-12-04T21:32:23.200Z,2.60
2022-12-04T21:34:49.925Z,2.60
2022-12-04T21:37:16.492Z,2.60
2022-12-04T21:39:51.734Z,2.60
2022-12-04T21:42:30.577Z,2.50
2022-12-04T21:44:58.522Z,2.50
2022-12-04T21:47:25.530Z,2.50
2022-12-04T21:49:52.143Z,2.50
2022-12-04T21:52:19.782Z,2.50
2022-12-04T21:54:52.238Z,2.50
2022-12-04T21:57:19.636Z,2.50
2022-12-04T21:59:46.377Z,2.50
2022-12-04T22:02:14.161Z,2.50
2022-12-04T22:04:41.339Z,2.50
2022-12-04T22:07:08.004Z,2.50
2022-12-04T22:15:01.284Z,2.60
2022-12-04T22:17:31.081Z,2.60
2022-12-04T22:19:57.926Z,2.60
2022-12-04T22:22:24.621Z,2.60
2022-12-04T22:24:51.180Z,2.60
2022-12-04T22:27:17.747Z,2.60
2022-12-04T22:29:51.731Z,2.60
2022-12-04T22:32:19.135Z,2.70
2022-12-04T22:34:50.461Z,2.70
2022-12-04T22:37:17.504Z,2.70
2022-12-04T22:39:44.126Z,2.70
2022-12-04T22:42:10.670Z,2.60
2022-12-04T22:44:37.264Z,2.60
2022-12-04T22:47:04.092Z,2.60
2022-12-04T22:49:30.736Z,2.60
2022-12-04T22:51:58.062Z,2.60
2022-12-04T22:59:51.252Z,2.60
2022-12-04T23:02:17.822Z,2.60
2022-12-04T23:04:44.522Z,2.60
2022-12-04T23:07:11.149Z,2.60
2022-12-04T23:09:38.082Z,2.60
2022-12-04T23:12:05.187Z,2.60
2022-12-04T23:14:33.595Z,2.60
2022-12-04T23:17:00.225Z,2.60
2022-12-04T23:19:26.878Z,2.60
2022-12-04T23:21:56.941Z,2.60
2022-12-04T23:27:05.205Z,2.60
2022-12-04T23:32:18.696Z,2.60
2022-12-04T23:34:45.624Z,2.50
2022-12-04T23:37:12.178Z,2.50
2022-12-04T23:39:38.748Z,2.50
2022-12-04T23:42:05.343Z,2.50
2022-12-04T23:44:31.924Z,2.50
2022-12-04T23:46:58.668Z,2.50
2022-12-04T23:49:25.311Z,2.50
2022-12-04T23:51:51.925Z,2.50
2022-12-04T23:59:56.604Z,2.40
